sensor_id;sensor_type;location;lat;lon;timestamp;pressure;altitude;pressure_sealevel;temperature;humidity
29825;BME280;16713;52.916;12.834;2023-04-19T00:00:58;102318.03;;;5.32;64.23
29825;BME280;16713;52.916;12.834;2023-04-19T00:03:27;102309.53;;;4.84;64.27
29825;BME280;16713;52.916;12.834;2023-04-19T00:05:56;102299.63;;;5.09;64.08
29825;BME280;16713;52.916;12.834;2023-04-19T00:08:24;102297.47;;;5.06;64.00
29825;BME280;16713;52.916;12.834;2023-04-19T00:10:51;102301.53;;;5.13;64.33
29825;BME280;16713;52.916;12.834;2023-04-19T00:13:17;102297.06;;;5.32;63.39
29825;BME280;16713;52.916;12.834;2023-04-19T00:15:44;102297.34;;;5.31;63.05
29825;BME280;16713;52.916;12.834;2023-04-19T00:18:10;102287.66;;;5.10;64.17
29825;BME280;16713;52.916;12.834;2023-04-19T00:20:38;102289.44;;;4.75;64.14
29825;BME280;16713;52.916;12.834;2023-04-19T00:23:04;102292.66;;;4.87;63.87
29825;BME280;16713;52.916;12.834;2023-04-19T00:25:31;102287.84;;;4.64;64.18
29825;BME280;16713;52.916;12.834;2023-04-19T00:27:59;102289.19;;;4.72;65.17
29825;BME280;16713;52.916;12.834;2023-04-19T00:30:26;102279.38;;;4.76;65.54
29825;BME280;16713;52.916;12.834;2023-04-19T00:32:52;102282.91;;;4.81;64.09
29825;BME280;16713;52.916;12.834;2023-04-19T00:35:19;102275.50;;;4.97;63.55
29825;BME280;16713;52.916;12.834;2023-04-19T00:37:45;102280.50;;;4.60;64.61
29825;BME280;16713;52.916;12.834;2023-04-19T00:40:12;102281.88;;;4.67;64.45
29825;BME280;16713;52.916;12.834;2023-04-19T00:42:38;102277.50;;;4.61;65.35
29825;BME280;16713;52.916;12.834;2023-04-19T00:45:05;102281.88;;;4.67;65.14
29825;BME280;16713;52.916;12.834;2023-04-19T00:47:32;102271.75;;;4.78;64.99
29825;BME280;16713;52.916;12.834;2023-04-19T00:49:58;102272.59;;;4.78;64.47
29825;BME280;16713;52.916;12.834;2023-04-19T00:52:25;102274.41;;;4.98;64.06
29825;BME280;16713;52.916;12.834;2023-04-19T00:54:52;102276.47;;;4.57;64.84
29825;BME280;16713;52.916;12.834;2023-04-19T00:57:19;102265.00;;;4.70;64.99
29825;BME280;16713;52.916;12.834;2023-04-19T00:59:46;102261.16;;;4.81;64.36
29825;BME280;16713;52.916;12.834;2023-04-19T01:02:13;102266.34;;;4.68;64.03
29825;BME280;16713;52.916;12.834;2023-04-19T01:04:39;102265.50;;;4.77;63.56
29825;BME280;16713;52.916;12.834;2023-04-19T01:07:06;102260.41;;;4.71;64.47
29825;BME280;16713;52.916;12.834;2023-04-19T01:09:33;102266.63;;;4.66;64.23
29825;BME280;16713;52.916;12.834;2023-04-19T01:12:00;102257.31;;;4.93;64.20
29825;BME280;16713;52.916;12.834;2023-04-19T01:14:28;102260.16;;;4.52;64.40
29825;BME280;16713;52.916;12.834;2023-04-19T01:16:56;102261.00;;;4.48;64.89
29825;BME280;16713;52.916;12.834;2023-04-19T01:19:22;102260.47;;;4.31;65.57
29825;BME280;16713;52.916;12.834;2023-04-19T01:21:49;102259.13;;;4.18;65.22
29825;BME280;16713;52.916;12.834;2023-04-19T01:24:15;102259.66;;;4.35;65.97
29825;BME280;16713;52.916;12.834;2023-04-19T01:26:42;102255.84;;;4.31;65.42
29825;BME280;16713;52.916;12.834;2023-04-19T01:29:08;102260.44;;;4.51;66.25
29825;BME280;16713;52.916;12.834;2023-04-19T01:31:35;102254.47;;;4.44;66.40
29825;BME280;16713;52.916;12.834;2023-04-19T01:34:01;102251.47;;;4.55;65.37
29825;BME280;16713;52.916;12.834;2023-04-19T01:36:28;102252.59;;;4.44;66.17
29825;BME280;16713;52.916;12.834;2023-04-19T01:38:55;102254.31;;;4.94;64.55
29825;BME280;16713;52.916;12.834;2023-04-19T01:41:21;102243.28;;;4.65;65.48
29825;BME280;16713;52.916;12.834;2023-04-19T01:43:52;102250.34;;;4.66;65.64
29825;BME280;16713;52.916;12.834;2023-04-19T01:46:18;102251.75;;;4.49;65.83
29825;BME280;16713;52.916;12.834;2023-04-19T01:48:44;102245.25;;;4.30;66.77
29825;BME280;16713;52.916;12.834;2023-04-19T01:51:11;102241.97;;;4.38;66.30
29825;BME280;16713;52.916;12.834;2023-04-19T01:53:37;102240.09;;;4.48;66.49
29825;BME280;16713;52.916;12.834;2023-04-19T01:56:04;102244.69;;;4.58;66.05
29825;BME280;16713;52.916;12.834;2023-04-19T01:58:31;102238.41;;;4.57;66.41
29825;BME280;16713;52.916;12.834;2023-04-19T02:00:57;102227.34;;;4.34;66.65
29825;BME280;16713;52.916;12.834;2023-04-19T02:03:24;102221.63;;;4.35;67.30
29825;BME280;16713;52.916;12.834;2023-04-19T02:05:50;102230.56;;;4.41;67.24
29825;BME280;16713;52.916;12.834;2023-04-19T02:08:17;102225.41;;;4.29;67.72
29825;BME280;16713;52.916;12.834;2023-04-19T02:10:43;102223.56;;;4.15;67.12
29825;BME280;16713;52.916;12.834;2023-04-19T02:13:09;102216.19;;;4.35;67.86
29825;BME280;16713;52.916;12.834;2023-04-19T02:15:36;102223.03;;;4.13;67.72
29825;BME280;16713;52.916;12.834;2023-04-19T02:18:02;102215.72;;;4.03;67.85
29825;BME280;16713;52.916;12.834;2023-04-19T02:20:32;102215.38;;;4.20;67.78
29825;BME280;16713;52.916;12.834;2023-04-19T02:22:59;102218.16;;;4.10;68.66
29825;BME280;16713;52.916;12.834;2023-04-19T02:25:25;102223.03;;;3.98;68.15
29825;BME280;16713;52.916;12.834;2023-04-19T02:27:52;102215.72;;;3.83;68.76
29825;BME280;16713;52.916;12.834;2023-04-19T02:30:19;102210.06;;;3.70;68.68
29825;BME280;16713;52.916;12.834;2023-04-19T02:32:47;102205.97;;;3.82;68.81
29825;BME280;16713;52.916;12.834;2023-04-19T02:35:13;102213.84;;;3.89;69.89
29825;BME280;16713;52.916;12.834;2023-04-19T02:37:40;102205.94;;;3.97;68.46
29825;BME280;16713;52.916;12.834;2023-04-19T02:40:07;102202.41;;;4.07;68.66
29825;BME280;16713;52.916;12.834;2023-04-19T02:42:34;102204.31;;;4.01;68.52
29825;BME280;16713;52.916;12.834;2023-04-19T02:45:01;102205.38;;;4.10;67.78
29825;BME280;16713;52.916;12.834;2023-04-19T02:47:27;102196.44;;;3.85;69.31
29825;BME280;16713;52.916;12.834;2023-04-19T02:49:54;102197.56;;;3.84;69.76
29825;BME280;16713;52.916;12.834;2023-04-19T02:52:20;102189.41;;;3.69;70.01
29825;BME280;16713;52.916;12.834;2023-04-19T02:54:47;102185.59;;;3.90;70.16
29825;BME280;16713;52.916;12.834;2023-04-19T02:57:13;102188.31;;;4.00;69.85
29825;BME280;16713;52.916;12.834;2023-04-19T02:59:39;102188.03;;;3.96;69.84
29825;BME280;16713;52.916;12.834;2023-04-19T03:02:06;102185.59;;;4.05;69.83
29825;BME280;16713;52.916;12.834;2023-04-19T03:04:32;102186.63;;;4.14;69.95
29825;BME280;16713;52.916;12.834;2023-04-19T03:06:59;102170.69;;;3.82;69.78
29825;BME280;16713;52.916;12.834;2023-04-19T03:09:26;102165.72;;;4.24;70.14
29825;BME280;16713;52.916;12.834;2023-04-19T03:11:52;102163.28;;;4.23;70.36
29825;BME280;16713;52.916;12.834;2023-04-19T03:14:19;102170.63;;;4.02;71.27
29825;BME280;16713;52.916;12.834;2023-04-19T03:16:45;102162.13;;;4.39;69.45
29825;BME280;16713;52.916;12.834;2023-04-19T03:19:12;102154.22;;;4.52;70.14
29825;BME280;16713;52.916;12.834;2023-04-19T03:21:38;102157.78;;;4.48;69.57
29825;BME280;16713;52.916;12.834;2023-04-19T03:24:05;102149.03;;;4.56;68.97
29825;BME280;16713;52.916;12.834;2023-04-19T03:26:31;102160.22;;;4.49;68.17
29825;BME280;16713;52.916;12.834;2023-04-19T03:28:58;102148.78;;;4.42;68.87
29825;BME280;16713;52.916;12.834;2023-04-19T03:31:24;102135.50;;;4.46;69.09
29825;BME280;16713;52.916;12.834;2023-04-19T03:33:51;102131.75;;;4.22;70.07
29825;BME280;16713;52.916;12.834;2023-04-19T03:36:17;102133.88;;;4.35;69.52
29825;BME280;16713;52.916;12.834;2023-04-19T03:38:44;102134.34;;;4.57;69.10
29825;BME280;16713;52.916;12.834;2023-04-19T03:41:21;102128.78;;;4.18;69.46
29825;BME280;16713;52.916;12.834;2023-04-19T03:43:48;102123.28;;;4.48;69.34
29825;BME280;16713;52.916;12.834;2023-04-19T03:46:15;102131.34;;;4.58;68.68
29825;BME280;16713;52.916;12.834;2023-04-19T03:48:41;102134.25;;;4.77;67.98
29825;BME280;16713;52.916;12.834;2023-04-19T03:51:08;102118.66;;;4.44;68.95
29825;BME280;16713;52.916;12.834;2023-04-19T03:53:35;102123.41;;;4.72;69.24
29825;BME280;16713;52.916;12.834;2023-04-19T03:56:01;102129.00;;;4.90;68.66
29825;BME280;16713;52.916;12.834;2023-04-19T03:58:28;102133.03;;;4.98;67.18
29825;BME280;16713;52.916;12.834;2023-04-19T04:00:54;102131.38;;;5.02;67.32
29825;BME280;16713;52.916;12.834;2023-04-19T04:03:21;102126.19;;;5.06;66.84
29825;BME280;16713;52.916;12.834;2023-04-19T04:05:48;102123.19;;;5.07;68.01
29825;BME280;16713;52.916;12.834;2023-04-19T04:08:14;102119.06;;;5.10;67.54
29825;BME280;16713;52.916;12.834;2023-04-19T04:10:41;102120.97;;;4.70;66.94
29825;BME280;16713;52.916;12.834;2023-04-19T04:13:07;102123.03;;;4.30;68.84
29825;BME280;16713;52.916;12.834;2023-04-19T04:15:34;102117.13;;;4.23;68.58
29825;BME280;16713;52.916;12.834;2023-04-19T04:18:00;102114.03;;;4.49;68.96
29825;BME280;16713;52.916;12.834;2023-04-19T04:20:27;102119.09;;;4.71;68.22
29825;BME280;16713;52.916;12.834;2023-04-19T04:22:53;102109.44;;;4.45;68.11
29825;BME280;16713;52.916;12.834;2023-04-19T04:25:19;102111.63;;;4.33;68.27
29825;BME280;16713;52.916;12.834;2023-04-19T04:27:51;102109.06;;;4.61;68.76
29825;BME280;16713;52.916;12.834;2023-04-19T04:30:18;102115.50;;;4.17;69.47
29825;BME280;16713;52.916;12.834;2023-04-19T04:32:44;102117.69;;;4.10;69.59
29825;BME280;16713;52.916;12.834;2023-04-19T04:35:12;102117.44;;;4.06;70.23
29825;BME280;16713;52.916;12.834;2023-04-19T04:37:38;102114.56;;;4.51;69.72
29825;BME280;16713;52.916;12.834;2023-04-19T04:40:05;102115.16;;;4.33;69.85
29825;BME280;16713;52.916;12.834;2023-04-19T04:42:33;102115.75;;;4.25;70.78
29825;BME280;16713;52.916;12.834;2023-04-19T04:45:00;102118.97;;;4.32;70.74
29825;BME280;16713;52.916;12.834;2023-04-19T04:47:33;102113.47;;;4.42;68.40
29825;BME280;16713;52.916;12.834;2023-04-19T04:50:00;102102.44;;;4.24;68.71
29825;BME280;16713;52.916;12.834;2023-04-19T04:52:27;102114.25;;;4.63;69.19
29825;BME280;16713;52.916;12.834;2023-04-19T04:54:54;102110.56;;;4.34;69.32
29825;BME280;16713;52.916;12.834;2023-04-19T04:57:21;102107.56;;;4.35;69.69
29825;BME280;16713;52.916;12.834;2023-04-19T04:59:47;102115.66;;;4.45;68.96
29825;BME280;16713;52.916;12.834;2023-04-19T05:02:14;102111.63;;;4.33;69.32
29825;BME280;16713;52.916;12.834;2023-04-19T05:04:41;102121.69;;;4.32;69.45
29825;BME280;16713;52.916;12.834;2023-04-19T05:07:08;102103.72;;;4.41;69.80
29825;BME280;16713;52.916;12.834;2023-04-19T05:09:34;102105.59;;;4.41;69.55
29825;BME280;16713;52.916;12.834;2023-04-19T05:12:00;102097.19;;;4.37;68.37
29825;BME280;16713;52.916;12.834;2023-04-19T05:14:27;102094.69;;;3.92;69.89
29825;BME280;16713;52.916;12.834;2023-04-19T05:16:53;102100.19;;;4.36;69.91
29825;BME280;16713;52.916;12.834;2023-04-19T05:19:20;102091.22;;;4.45;68.73
29825;BME280;16713;52.916;12.834;2023-04-19T05:21:47;102097.72;;;4.49;69.16
29825;BME280;16713;52.916;12.834;2023-04-19T05:24:13;102103.44;;;4.48;68.99
29825;BME280;16713;52.916;12.834;2023-04-19T05:26:40;102096.50;;;4.12;68.45
29825;BME280;16713;52.916;12.834;2023-04-19T05:29:06;102098.28;;;4.46;68.94
29825;BME280;16713;52.916;12.834;2023-04-19T05:31:33;102090.69;;;4.48;69.33
29825;BME280;16713;52.916;12.834;2023-04-19T05:33:59;102082.56;;;4.38;68.81
29825;BME280;16713;52.916;12.834;2023-04-19T05:36:26;102092.94;;;4.80;68.28
29825;BME280;16713;52.916;12.834;2023-04-19T05:38:53;102079.50;;;4.93;67.29
29825;BME280;16713;52.916;12.834;2023-04-19T05:41:19;102083.94;;;4.79;68.12
29825;BME280;16713;52.916;12.834;2023-04-19T05:43:46;102076.22;;;4.58;67.94
29825;BME280;16713;52.916;12.834;2023-04-19T05:46:13;102084.88;;;4.60;67.65
29825;BME280;16713;52.916;12.834;2023-04-19T05:48:39;102081.84;;;5.05;67.20
29825;BME280;16713;52.916;12.834;2023-04-19T05:51:06;102079.13;;;4.71;67.02
29825;BME280;16713;52.916;12.834;2023-04-19T05:53:32;102084.91;;;4.99;67.08
29825;BME280;16713;52.916;12.834;2023-04-19T05:55:58;102076.63;;;4.80;67.53
29825;BME280;16713;52.916;12.834;2023-04-19T05:58:25;102075.69;;;4.95;66.66
29825;BME280;16713;52.916;12.834;2023-04-19T06:00:52;102081.06;;;5.05;66.31
29825;BME280;16713;52.916;12.834;2023-04-19T06:03:19;102073.47;;;5.35;65.49
29825;BME280;16713;52.916;12.834;2023-04-19T06:05:45;102079.06;;;5.15;65.14
29825;BME280;16713;52.916;12.834;2023-04-19T06:08:12;102074.38;;;5.54;65.12
29825;BME280;16713;52.916;12.834;2023-04-19T06:10:41;102083.66;;;5.77;64.69
29825;BME280;16713;52.916;12.834;2023-04-19T06:13:14;102086.88;;;6.26;63.93
29825;BME280;16713;52.916;12.834;2023-04-19T06:15:41;102076.53;;;6.28;63.42
29825;BME280;16713;52.916;12.834;2023-04-19T06:18:07;102082.66;;;6.39;62.77
29825;BME280;16713;52.916;12.834;2023-04-19T06:20:45;102081.84;;;6.38;62.18
29825;BME280;16713;52.916;12.834;2023-04-19T06:23:12;102086.03;;;6.07;62.42
29825;BME280;16713;52.916;12.834;2023-04-19T06:25:40;102089.59;;;6.87;61.48
29825;BME280;16713;52.916;12.834;2023-04-19T06:28:06;102088.25;;;6.66;60.93
29825;BME280;16713;52.916;12.834;2023-04-19T06:30:33;102083.13;;;6.46;61.21
29825;BME280;16713;52.916;12.834;2023-04-19T06:32:59;102084.81;;;6.18;61.54
29825;BME280;16713;52.916;12.834;2023-04-19T06:35:26;102103.19;;;6.73;60.88
29825;BME280;16713;52.916;12.834;2023-04-19T06:37:52;102097.34;;;6.61;61.12
29825;BME280;16713;52.916;12.834;2023-04-19T06:40:19;102095.66;;;6.65;60.80
29825;BME280;16713;52.916;12.834;2023-04-19T06:42:45;102095.47;;;7.12;60.16
29825;BME280;16713;52.916;12.834;2023-04-19T06:45:12;102091.78;;;6.85;59.41
29825;BME280;16713;52.916;12.834;2023-04-19T06:47:40;102098.56;;;7.06;61.12
29825;BME280;16713;52.916;12.834;2023-04-19T06:50:07;102104.41;;;7.31;60.57
29825;BME280;16713;52.916;12.834;2023-04-19T06:52:34;102095.50;;;7.58;58.47
29825;BME280;16713;52.916;12.834;2023-04-19T06:55:00;102102.03;;;7.43;57.82
29825;BME280;16713;52.916;12.834;2023-04-19T06:57:27;102096.72;;;7.01;58.54
29825;BME280;16713;52.916;12.834;2023-04-19T06:59:54;102104.69;;;7.16;58.84
29825;BME280;16713;52.916;12.834;2023-04-19T07:02:20;102091.06;;;6.98;58.42
29825;BME280;16713;52.916;12.834;2023-04-19T07:04:47;102090.69;;;7.04;58.97
29825;BME280;16713;52.916;12.834;2023-04-19T07:07:14;102098.16;;;7.31;58.57
29825;BME280;16713;52.916;12.834;2023-04-19T07:09:40;102088.69;;;6.91;58.28
29825;BME280;16713;52.916;12.834;2023-04-19T07:12:07;102106.50;;;7.53;57.52
29825;BME280;16713;52.916;12.834;2023-04-19T07:14:34;102087.84;;;7.28;58.21
29825;BME280;16713;52.916;12.834;2023-04-19T07:17:00;102097.78;;;7.37;58.29
29825;BME280;16713;52.916;12.834;2023-04-19T07:19:29;102087.63;;;7.70;58.07
29825;BME280;16713;52.916;12.834;2023-04-19T07:21:55;102084.75;;;8.07;57.63
29825;BME280;16713;52.916;12.834;2023-04-19T07:24:21;102073.22;;;8.24;56.10
29825;BME280;16713;52.916;12.834;2023-04-19T07:26:48;102081.59;;;8.14;55.28
29825;BME280;16713;52.916;12.834;2023-04-19T07:29:15;102070.56;;;8.19;55.17
29825;BME280;16713;52.916;12.834;2023-04-19T07:31:41;102078.84;;;8.41;55.14
29825;BME280;16713;52.916;12.834;2023-04-19T07:34:08;102069.38;;;7.98;55.25
29825;BME280;16713;52.916;12.834;2023-04-19T07:36:35;102070.50;;;8.59;55.71
29825;BME280;16713;52.916;12.834;2023-04-19T07:39:03;102072.19;;;8.20;54.57
29825;BME280;16713;52.916;12.834;2023-04-19T07:41:32;102069.91;;;8.49;54.42
29825;BME280;16713;52.916;12.834;2023-04-19T07:44:01;102067.53;;;8.34;52.68
29825;BME280;16713;52.916;12.834;2023-04-19T07:46:27;102061.16;;;8.74;55.11
29825;BME280;16713;52.916;12.834;2023-04-19T07:48:54;102066.31;;;8.75;53.93
29825;BME280;16713;52.916;12.834;2023-04-19T07:51:21;102057.81;;;8.63;53.34
29825;BME280;16713;52.916;12.834;2023-04-19T07:53:49;102048.84;;;8.85;52.46
29825;BME280;16713;52.916;12.834;2023-04-19T07:56:16;102048.88;;;8.71;52.58
29825;BME280;16713;52.916;12.834;2023-04-19T07:58:42;102059.47;;;8.64;52.40
29825;BME280;16713;52.916;12.834;2023-04-19T08:01:12;102054.41;;;8.58;50.21
29825;BME280;16713;52.916;12.834;2023-04-19T08:03:38;102058.34;;;8.87;51.75
29825;BME280;16713;52.916;12.834;2023-04-19T08:06:06;102056.84;;;8.59;50.93
29825;BME280;16713;52.916;12.834;2023-04-19T08:08:35;102044.97;;;8.64;51.78
29825;BME280;16713;52.916;12.834;2023-04-19T08:11:01;102053.38;;;8.67;50.86
29825;BME280;16713;52.916;12.834;2023-04-19T08:13:28;102049.06;;;8.53;51.89
29825;BME280;16713;52.916;12.834;2023-04-19T08:15:55;102052.88;;;8.87;50.75
29825;BME280;16713;52.916;12.834;2023-04-19T08:18:25;102053.16;;;8.99;50.97
29825;BME280;16713;52.916;12.834;2023-04-19T08:20:52;102055.06;;;8.77;50.25
29825;BME280;16713;52.916;12.834;2023-04-19T08:23:19;102063.28;;;8.99;51.79
29825;BME280;16713;52.916;12.834;2023-04-19T08:25:53;102057.72;;;8.68;49.91
29825;BME280;16713;52.916;12.834;2023-04-19T08:28:19;102055.94;;;8.50;50.46
29825;BME280;16713;52.916;12.834;2023-04-19T08:30:46;102055.31;;;8.89;50.48
29825;BME280;16713;52.916;12.834;2023-04-19T08:33:12;102062.72;;;8.53;51.15
29825;BME280;16713;52.916;12.834;2023-04-19T08:35:40;102058.44;;;8.60;51.71
29825;BME280;16713;52.916;12.834;2023-04-19T08:38:07;102062.53;;;8.85;52.23
29825;BME280;16713;52.916;12.834;2023-04-19T08:40:34;102056.94;;;8.90;51.63
29825;BME280;16713;52.916;12.834;2023-04-19T08:43:06;102082.34;;;8.90;51.82
29825;BME280;16713;52.916;12.834;2023-04-19T08:45:33;102060.84;;;8.75;50.60
29825;BME280;16713;52.916;12.834;2023-04-19T08:48:01;102057.81;;;8.99;49.22
29825;BME280;16713;52.916;12.834;2023-04-19T08:50:29;102046.97;;;9.16;51.12
29825;BME280;16713;52.916;12.834;2023-04-19T08:53:11;102049.81;;;8.89;49.28
29825;BME280;16713;52.916;12.834;2023-04-19T08:55:41;102051.63;;;8.93;51.05
29825;BME280;16713;52.916;12.834;2023-04-19T08:58:28;102054.66;;;9.58;50.49
29825;BME280;16713;52.916;12.834;2023-04-19T09:01:17;102042.66;;;9.76;48.80
29825;BME280;16713;52.916;12.834;2023-04-19T09:04:01;102047.25;;;9.28;48.15
29825;BME280;16713;52.916;12.834;2023-04-19T09:06:47;102060.19;;;9.75;48.20
29825;BME280;16713;52.916;12.834;2023-04-19T09:09:16;102062.88;;;10.45;47.13
29825;BME280;16713;52.916;12.834;2023-04-19T09:12:00;102036.75;;;10.00;48.33
29825;BME280;16713;52.916;12.834;2023-04-19T09:14:27;102047.75;;;10.08;48.53
29825;BME280;16713;52.916;12.834;2023-04-19T09:17:11;102037.19;;;9.76;49.12
29825;BME280;16713;52.916;12.834;2023-04-19T09:19:46;102027.81;;;9.69;49.27
29825;BME280;16713;52.916;12.834;2023-04-19T09:22:13;102042.97;;;9.83;48.21
29825;BME280;16713;52.916;12.834;2023-04-19T09:24:40;102025.75;;;9.91;46.55
29825;BME280;16713;52.916;12.834;2023-04-19T09:27:09;102037.41;;;9.97;46.83
29825;BME280;16713;52.916;12.834;2023-04-19T09:29:37;102030.84;;;9.67;45.11
29825;BME280;16713;52.916;12.834;2023-04-19T09:32:04;102020.63;;;9.51;47.29
29825;BME280;16713;52.916;12.834;2023-04-19T09:34:31;102026.69;;;9.17;46.35
29825;BME280;16713;52.916;12.834;2023-04-19T09:37:10;102038.28;;;9.75;46.59
29825;BME280;16713;52.916;12.834;2023-04-19T09:39:57;102029.72;;;9.68;46.60
29825;BME280;16713;52.916;12.834;2023-04-19T09:42:43;102030.59;;;9.86;45.18
29825;BME280;16713;52.916;12.834;2023-04-19T09:48:07;102045.16;;;10.03;46.28
29825;BME280;16713;52.916;12.834;2023-04-19T09:50:35;102017.84;;;9.90;44.97
29825;BME280;16713;52.916;12.834;2023-04-19T09:53:20;102007.16;;;9.32;45.40
29825;BME280;16713;52.916;12.834;2023-04-19T09:55:47;102042.00;;;10.18;44.63
29825;BME280;16713;52.916;12.834;2023-04-19T09:58:27;102010.81;;;9.58;44.36
29825;BME280;16713;52.916;12.834;2023-04-19T10:01:03;102023.66;;;9.80;45.05
29825;BME280;16713;52.916;12.834;2023-04-19T10:03:43;102007.03;;;9.76;43.78
29825;BME280;16713;52.916;12.834;2023-04-19T10:06:22;102013.94;;;9.65;44.43
29825;BME280;16713;52.916;12.834;2023-04-19T10:08:52;102013.81;;;9.79;44.33
29825;BME280;16713;52.916;12.834;2023-04-19T10:11:20;102021.59;;;9.94;44.90
29825;BME280;16713;52.916;12.834;2023-04-19T10:13:48;102013.88;;;10.04;43.74
29825;BME280;16713;52.916;12.834;2023-04-19T10:16:18;102012.56;;;9.93;44.50
29825;BME280;16713;52.916;12.834;2023-04-19T10:18:48;102007.22;;;9.88;44.21
29825;BME280;16713;52.916;12.834;2023-04-19T10:21:16;101996.47;;;10.00;44.09
29825;BME280;16713;52.916;12.834;2023-04-19T10:23:45;101991.28;;;9.90;44.01
29825;BME280;16713;52.916;12.834;2023-04-19T10:26:11;101999.94;;;9.75;44.04
29825;BME280;16713;52.916;12.834;2023-04-19T10:28:40;102004.22;;;9.59;44.61
29825;BME280;16713;52.916;12.834;2023-04-19T10:31:11;102013.81;;;9.79;43.74
29825;BME280;16713;52.916;12.834;2023-04-19T10:33:39;102010.94;;;9.92;45.01
29825;BME280;16713;52.916;12.834;2023-04-19T10:36:10;102002.84;;;9.70;44.21
29825;BME280;16713;52.916;12.834;2023-04-19T10:38:41;102006.56;;;9.83;45.47
29825;BME280;16713;52.916;12.834;2023-04-19T10:41:15;101998.72;;;9.59;46.82
29825;BME280;16713;52.916;12.834;2023-04-19T10:43:47;102006.81;;;9.56;46.01
29825;BME280;16713;52.916;12.834;2023-04-19T10:48:59;101983.78;;;9.65;48.07
29825;BME280;16713;52.916;12.834;2023-04-19T10:53:54;101985.94;;;9.77;46.49
29825;BME280;16713;52.916;12.834;2023-04-19T10:56:57;101990.56;;;9.68;47.52
29825;BME280;16713;52.916;12.834;2023-04-19T10:59:25;101990.84;;;10.05;46.57
29825;BME280;16713;52.916;12.834;2023-04-19T11:01:55;101975.13;;;9.80;46.71
29825;BME280;16713;52.916;12.834;2023-04-19T11:07:00;101999.72;;;10.36;46.17
29825;BME280;16713;52.916;12.834;2023-04-19T11:09:31;101974.81;;;9.82;45.34
29825;BME280;16713;52.916;12.834;2023-04-19T11:12:03;101976.28;;;9.96;46.45
29825;BME280;16713;52.916;12.834;2023-04-19T11:14:35;101990.41;;;10.46;46.92
29825;BME280;16713;52.916;12.834;2023-04-19T11:17:16;101992.19;;;10.68;46.17
29825;BME280;16713;52.916;12.834;2023-04-19T11:22:44;101971.31;;;9.98;45.60
29825;BME280;16713;52.916;12.834;2023-04-19T11:25:15;101961.41;;;9.80;45.50
29825;BME280;16713;52.916;12.834;2023-04-19T11:27:49;101958.41;;;10.07;45.46
29825;BME280;16713;52.916;12.834;2023-04-19T11:30:18;101949.03;;;9.91;46.43
29825;BME280;16713;52.916;12.834;2023-04-19T11:32:47;101963.75;;;10.21;46.31
29825;BME280;16713;52.916;12.834;2023-04-19T11:35:18;101958.09;;;10.17;46.71
29825;BME280;16713;52.916;12.834;2023-04-19T11:37:44;101956.66;;;10.28;47.09
29825;BME280;16713;52.916;12.834;2023-04-19T11:40:16;101964.72;;;10.33;45.99
29825;BME280;16713;52.916;12.834;2023-04-19T11:42:43;101948.44;;;10.11;46.39
29825;BME280;16713;52.916;12.834;2023-04-19T11:45:10;101943.44;;;10.13;46.71
29825;BME280;16713;52.916;12.834;2023-04-19T11:47:54;101946.50;;;10.20;46.24
29825;BME280;16713;52.916;12.834;2023-04-19T11:53:17;101940.22;;;10.11;46.70
29825;BME280;16713;52.916;12.834;2023-04-19T11:58:26;101935.84;;;10.19;47.20
29825;BME280;16713;52.916;12.834;2023-04-19T12:00:55;101948.59;;;10.15;45.83
29825;BME280;16713;52.916;12.834;2023-04-19T12:03:23;101944.25;;;10.22;46.40
29825;BME280;16713;52.916;12.834;2023-04-19T12:05:56;101934.41;;;10.21;46.14
29825;BME280;16713;52.916;12.834;2023-04-19T12:08:34;101932.31;;;10.44;46.40
29825;BME280;16713;52.916;12.834;2023-04-19T12:11:02;101932.13;;;10.06;45.67
29825;BME280;16713;52.916;12.834;2023-04-19T12:13:30;101926.28;;;9.74;45.16
29825;BME280;16713;52.916;12.834;2023-04-19T12:15:57;101921.97;;;9.98;44.81
29825;BME280;16713;52.916;12.834;2023-04-19T12:18:24;101931.66;;;10.38;44.62
29825;BME280;16713;52.916;12.834;2023-04-19T12:20:51;101939.09;;;10.64;44.63
29825;BME280;16713;52.916;12.834;2023-04-19T12:23:19;101916.31;;;10.72;43.45
29825;BME280;16713;52.916;12.834;2023-04-19T12:25:47;101888.13;;;10.11;42.88
29825;BME280;16713;52.916;12.834;2023-04-19T12:28:14;101898.59;;;10.35;43.50
29825;BME280;16713;52.916;12.834;2023-04-19T12:30:41;101902.16;;;10.10;42.11
29825;BME280;16713;52.916;12.834;2023-04-19T12:33:08;101897.97;;;10.21;41.33
29825;BME280;16713;52.916;12.834;2023-04-19T12:35:36;101896.81;;;10.73;43.18
29825;BME280;16713;52.916;12.834;2023-04-19T12:38:03;101892.00;;;10.36;42.12
29825;BME280;16713;52.916;12.834;2023-04-19T12:40:30;101887.00;;;10.04;41.06
29825;BME280;16713;52.916;12.834;2023-04-19T12:42:56;101889.25;;;10.19;40.98
29825;BME280;16713;52.916;12.834;2023-04-19T12:45:23;101861.16;;;10.30;41.62
29825;BME280;16713;52.916;12.834;2023-04-19T12:47:49;101868.44;;;10.52;41.19
29825;BME280;16713;52.916;12.834;2023-04-19T12:50:16;101869.22;;;10.44;40.19
29825;BME280;16713;52.916;12.834;2023-04-19T12:52:43;101850.06;;;9.84;39.21
29825;BME280;16713;52.916;12.834;2023-04-19T12:55:10;101850.06;;;9.84;41.20
29825;BME280;16713;52.916;12.834;2023-04-19T12:57:36;101857.16;;;10.19;41.39
29825;BME280;16713;52.916;12.834;2023-04-19T13:00:04;101869.88;;;10.41;39.28
29825;BME280;16713;52.916;12.834;2023-04-19T13:02:33;101857.78;;;10.33;40.28
29825;BME280;16713;52.916;12.834;2023-04-19T13:05:00;101851.97;;;10.35;41.47
29825;BME280;16713;52.916;12.834;2023-04-19T13:07:27;101846.19;;;10.19;41.45
29825;BME280;16713;52.916;12.834;2023-04-19T13:09:54;101852.13;;;10.30;39.64
29825;BME280;16713;52.916;12.834;2023-04-19T13:12:22;101866.69;;;10.13;40.33